createdAt,value
2022-08-17T00:02:26.290Z,80.16
2022-08-17T00:04:55.692Z,79.92
2022-08-17T00:07:23.213Z,79.65
2022-08-17T00:09:50.656Z,79.29
2022-08-17T00:12:43.070Z,79.49
2022-08-17T00:15:10.617Z,79.67
2022-08-17T00:17:39.581Z,79.99
2022-08-17T00:20:07.771Z,79.78
2022-08-17T00:22:36.658Z,79.13
2022-08-17T00:25:09.049Z,78.81
2022-08-17T00:27:37.086Z,78.42
2022-08-17T00:30:11.777Z,78.31
2022-08-17T00:33:13.839Z,78.67
2022-08-17T00:35:32.708Z,78.49
2022-08-17T00:38:00.441Z,78.43
2022-08-17T00:40:40.747Z,78.14
2022-08-17T00:43:40.988Z,78.36
2022-08-17T00:46:19.396Z,78.37
2022-08-17T00:48:47.448Z,78.23
2022-08-17T00:51:32.382Z,78.40
2022-08-17T00:54:27.243Z,78.31
2022-08-17T00:57:00.851Z,78.35
2022-08-17T00:59:37.630Z,78.64
2022-08-17T01:02:08.785Z,78.87
2022-08-17T01:04:36.612Z,79.35
2022-08-17T01:07:06.193Z,79.20
2022-08-17T01:09:34.270Z,79.05
2022-08-17T01:12:01.998Z,78.98
2022-08-17T01:14:29.574Z,79.35
2022-08-17T01:16:57.019Z,79.38
2022-08-17T01:19:34.469Z,79.42
2022-08-17T01:22:12.971Z,79.68
2022-08-17T01:24:48.479Z,79.79
2022-08-17T01:27:18.480Z,81.04
2022-08-17T01:29:56.956Z,80.90
2022-08-17T01:32:25.724Z,80.55
2022-08-17T01:34:54.537Z,81.02
2022-08-17T01:37:33.458Z,80.90
2022-08-17T01:40:14.974Z,81.53
2022-08-17T01:42:56.007Z,81.53
2022-08-17T01:45:30.465Z,81.60
2022-08-17T01:47:58.296Z,81.59
2022-08-17T01:50:43.432Z,81.88
2022-08-17T01:53:30.283Z,82.17
2022-08-17T01:56:05.189Z,82.04
2022-08-17T01:58:35.455Z,82.07
2022-08-17T02:01:04.994Z,82.46
2022-08-17T02:03:34.629Z,82.80
2022-08-17T02:06:03.738Z,82.54
2022-08-17T02:08:39.528Z,82.60
2022-08-17T02:11:22.990Z,82.28
2022-08-17T02:13:57.891Z,82.29
2022-08-17T02:16:37.726Z,83.12
2022-08-17T02:19:10.195Z,82.91
2022-08-17T02:21:39.575Z,82.91
2022-08-17T02:24:17.507Z,83.33
2022-08-17T02:27:05.985Z,84.27
2022-08-17T02:29:33.606Z,84.66
2022-08-17T02:32:02.354Z,84.49
2022-08-17T02:34:30.183Z,84.47
2022-08-17T02:36:58.452Z,84.64
2022-08-17T02:39:25.715Z,84.91
2022-08-17T02:42:02.491Z,84.56
2022-08-17T02:44:35.359Z,84.28
2022-08-17T02:47:10.010Z,84.39
2022-08-17T02:49:38.033Z,84.38
2022-08-17T02:52:07.881Z,84.06
2022-08-17T02:54:41.691Z,83.66
2022-08-17T02:57:10.777Z,83.69
2022-08-17T02:59:48.304Z,84.90
2022-08-17T03:02:16.656Z,84.61
2022-08-17T03:04:43.875Z,84.73
2022-08-17T03:07:11.861Z,85.46
2022-08-17T03:09:39.290Z,85.43
2022-08-17T03:12:13.583Z,85.26
2022-08-17T03:14:43.298Z,85.98
2022-08-17T03:17:16.979Z,86.47
2022-08-17T03:19:45.150Z,86.22
2022-08-17T03:22:35.381Z,86.48
2022-08-17T03:25:00.145Z,86.43
2022-08-17T03:27:28.028Z,86.33
2022-08-17T03:29:55.286Z,86.85
2022-08-17T03:32:22.690Z,86.87
2022-08-17T03:34:49.926Z,87.43
2022-08-17T03:37:17.346Z,86.81
2022-08-17T03:39:44.790Z,86.26
2022-08-17T03:42:31.859Z,86.07
2022-08-17T03:45:02.167Z,85.45
2022-08-17T03:47:47.928Z,85.43
2022-08-17T03:50:35.312Z,85.72
2022-08-17T03:53:27.368Z,85.29
2022-08-17T03:56:13.462Z,85.33
2022-08-17T03:58:40.702Z,86.06
2022-08-17T04:01:08.473Z,85.44
2022-08-17T04:03:36.039Z,85.56
2022-08-17T04:06:03.453Z,84.75
2022-08-17T04:08:31.533Z,84.58
2022-08-17T04:11:00.953Z,84.41
2022-08-17T04:13:28.293Z,85.21
2022-08-17T04:15:56.312Z,85.59
2022-08-17T04:18:23.658Z,85.67
2022-08-17T04:20:50.845Z,86.47
2022-08-17T04:23:19.342Z,86.55
2022-08-17T04:25:51.157Z,86.69
2022-08-17T04:28:20.181Z,86.93
2022-08-17T04:30:48.491Z,86.69
2022-08-17T04:33:24.303Z,86.22
2022-08-17T04:35:56.654Z,85.97
2022-08-17T04:38:31.712Z,86.08
2022-08-17T04:41:19.385Z,86.75
2022-08-17T04:43:48.933Z,86.59
2022-08-17T04:46:24.595Z,86.66
2022-08-17T04:48:56.573Z,86.98
2022-08-17T04:51:29.855Z,88.78
2022-08-17T04:54:09.266Z,88.50
2022-08-17T04:56:38.983Z,87.54
2022-08-17T04:59:16.961Z,88.36
2022-08-17T05:01:47.344Z,90.17
2022-08-17T05:04:34.489Z,88.90
2022-08-17T05:07:04.704Z,88.22
2022-08-17T05:09:32.421Z,88.02
2022-08-17T05:12:03.269Z,87.86
2022-08-17T05:14:33.661Z,87.92
2022-08-17T05:17:07.265Z,88.03
2022-08-17T05:19:38.761Z,87.78
2022-08-17T05:22:06.711Z,87.09
2022-08-17T05:24:39.837Z,87.29
2022-08-17T05:27:19.098Z,88.66
2022-08-17T05:29:46.514Z,87.60
2022-08-17T05:35:01.987Z,86.74
2022-08-17T05:37:29.200Z,87.01
2022-08-17T05:39:56.576Z,87.13
2022-08-17T05:42:24.244Z,87.33
2022-08-17T05:44:51.567Z,87.58
2022-08-17T05:47:18.758Z,87.32
2022-08-17T05:49:49.044Z,86.88
2022-08-17T05:53:02.267Z,86.56
2022-08-17T05:55:50.813Z,86.02
2022-08-17T05:58:26.865Z,85.98
2022-08-17T06:01:43.898Z,85.75
2022-08-17T06:04:31.773Z,85.65
2022-08-17T06:07:33.695Z,85.56
2022-08-17T06:10:31.509Z,85.77
2022-08-17T06:13:30.335Z,84.54
2022-08-17T06:16:33.720Z,83.89
2022-08-17T06:19:31.392Z,83.50
2022-08-17T06:22:00.761Z,83.39
2022-08-17T06:25:18.965Z,82.66
2022-08-17T06:28:04.943Z,82.04
2022-08-17T06:31:01.391Z,81.46
2022-08-17T06:33:39.507Z,80.61
2022-08-17T06:36:54.045Z,79.76
2022-08-17T06:40:14.020Z,79.71
2022-08-17T06:43:07.616Z,77.77
2022-08-17T06:45:43.970Z,72.63
2022-08-17T06:48:36.237Z,70.18
2022-08-17T06:51:17.072Z,67.78
2022-08-17T06:53:55.694Z,67.49
2022-08-17T06:56:57.400Z,68.08
2022-08-17T06:59:36.342Z,68.22
2022-08-17T07:02:52.757Z,67.10
2022-08-17T07:05:30.648Z,68.08
2022-08-17T07:08:09.337Z,67.74
2022-08-17T07:10:50.390Z,67.78
2022-08-17T07:14:17.183Z,67.52
2022-08-17T07:16:58.955Z,67.45
2022-08-17T07:19:35.250Z,66.77
2022-08-17T07:22:27.994Z,66.53
2022-08-17T07:25:03.952Z,65.89
2022-08-17T07:27:45.874Z,66.10
2022-08-17T07:30:45.773Z,65.72
2022-08-17T07:33:20.480Z,65.02
2022-08-17T07:35:49.963Z,64.00
2022-08-17T07:38:29.196Z,62.98
2022-08-17T07:41:02.646Z,62.10
2022-08-17T07:43:39.447Z,61.57
2022-08-17T07:46:47.794Z,61.21
2022-08-17T07:49:15.123Z,60.34
2022-08-17T07:51:47.730Z,59.80
2022-08-17T07:54:33.202Z,59.17
2022-08-17T07:57:12.279Z,58.81
2022-08-17T08:00:03.054Z,58.25
2022-08-17T08:02:43.690Z,57.96
2022-08-17T08:05:48.593Z,56.68
2022-08-17T08:08:42.454Z,55.72
2022-08-17T08:11:15.586Z,55.89
2022-08-17T08:13:45.860Z,56.12
2022-08-17T08:16:29.333Z,55.73
2022-08-17T08:19:01.318Z,55.08
2022-08-17T08:22:00.083Z,54.80
2022-08-17T08:25:11.363Z,54.34
2022-08-17T08:28:05.844Z,53.46
2022-08-17T08:30:45.228Z,54.02
2022-08-17T08:34:03.342Z,53.09
2022-08-17T08:37:33.659Z,52.79
2022-08-17T08:40:48.870Z,52.72
2022-08-17T08:44:13.916Z,51.39
2022-08-17T08:47:14.833Z,50.10
2022-08-17T08:50:08.532Z,50.61
2022-08-17T08:53:21.413Z,49.56
2022-08-17T08:55:59.244Z,49.01
2022-08-17T08:58:50.955Z,48.91
2022-08-17T09:01:43.633Z,47.29
2022-08-17T09:05:13.999Z,45.47
2022-08-17T09:08:24.617Z,44.39
2022-08-17T09:11:08.395Z,43.69
2022-08-17T09:14:03.299Z,41.39
2022-08-17T09:16:41.573Z,33.95
2022-08-17T09:20:02.221Z,25.86
2022-08-17T09:22:44.542Z,21.79
2022-08-17T09:25:22.137Z,26.25
2022-08-17T09:28:07.711Z,29.21
2022-08-17T09:30:45.607Z,24.78
2022-08-17T09:33:23.143Z,22.25
2022-08-17T09:36:00.189Z,19.63
2022-08-17T09:38:50.564Z,16.59
2022-08-17T09:42:07.680Z,17.41
2022-08-17T09:44:49.247Z,21.09
2022-08-17T09:47:47.919Z,19.77
2022-08-17T09:51:04.882Z,15.55
2022-08-17T09:53:38.212Z,12.93
2022-08-17T09:57:00.819Z,11.40
2022-08-17T09:59:55.613Z,10.29
2022-08-17T10:03:09.860Z,12.56
2022-08-17T10:06:02.985Z,13.69
2022-08-17T10:09:03.231Z,10.15
2022-08-17T10:12:03.722Z,8.41
2022-08-17T10:14:58.287Z,6.95
2022-08-17T10:18:04.138Z,6.97
2022-08-17T10:20:49.563Z,6.49
2022-08-17T10:23:48.070Z,6.06
2022-08-17T10:26:25.363Z,5.34
2022-08-17T10:29:05.173Z,8.54
2022-08-17T10:31:40.079Z,7.10
2022-08-17T10:34:26.293Z,5.86
2022-08-17T10:37:37.701Z,5.58
2022-08-17T10:40:45.549Z,5.53
2022-08-17T10:44:37.362Z,5.44
2022-08-17T10:47:11.816Z,5.41
2022-08-17T10:49:47.802Z,7.19
2022-08-17T10:52:25.165Z,6.86
2022-08-17T10:54:57.841Z,6.17
2022-08-17T10:57:37.099Z,6.15
2022-08-17T11:00:35.216Z,5.77
2022-08-17T11:03:17.345Z,5.81
2022-08-17T11:06:17.277Z,5.71
2022-08-17T11:09:38.108Z,9.33
2022-08-17T11:12:50.405Z,11.37
2022-08-17T11:15:50.691Z,12.63
2022-08-17T11:18:47.143Z,13.92
2022-08-17T11:21:33.084Z,14.86
2022-08-17T11:24:48.154Z,15.69
2022-08-17T11:27:36.732Z,16.57
2022-08-17T11:30:53.586Z,18.14
2022-08-17T11:33:30.379Z,19.00
2022-08-17T11:36:17.727Z,19.58
2022-08-17T11:39:20.082Z,19.83
2022-08-17T11:42:20.016Z,20.49
2022-08-17T11:45:11.844Z,20.13
2022-08-17T11:48:27.157Z,20.16
2022-08-17T11:51:24.491Z,20.98
2022-08-17T11:54:03.589Z,21.27
2022-08-17T11:56:49.035Z,21.18
2022-08-17T11:59:35.951Z,21.02
2022-08-17T12:02:31.747Z,21.40
2022-08-17T12:05:14.635Z,22.01
2022-08-17T12:08:00.763Z,22.07
2022-08-17T12:10:32.669Z,22.47
2022-08-17T12:13:10.755Z,22.60
2022-08-17T12:15:50.815Z,22.94
2022-08-17T12:18:38.436Z,22.83
2022-08-17T12:21:26.740Z,23.33
2022-08-17T12:24:03.348Z,23.14
2022-08-17T12:26:35.914Z,23.05
2022-08-17T12:29:18.184Z,22.73
2022-08-17T12:32:02.258Z,23.51
2022-08-17T12:34:42.629Z,23.58
2022-08-17T12:37:25.013Z,23.80
2022-08-17T12:40:02.633Z,24.29
2022-08-17T12:42:37.500Z,24.13
2022-08-17T12:45:31.511Z,24.82
2022-08-17T12:48:08.026Z,25.25
2022-08-17T12:50:45.938Z,25.68
2022-08-17T12:53:17.559Z,25.84
2022-08-17T12:55:45.993Z,26.55
2022-08-17T12:58:25.150Z,27.07
2022-08-17T13:01:04.400Z,27.25
2022-08-17T13:03:52.550Z,27.20
2022-08-17T13:06:37.354Z,27.82
2022-08-17T13:09:35.907Z,27.71
2022-08-17T13:12:08.461Z,27.63
2022-08-17T13:14:36.291Z,27.47
2022-08-17T13:17:11.105Z,26.87
2022-08-17T13:19:50.907Z,26.96
2022-08-17T13:22:28.148Z,26.69
2022-08-17T13:25:03.859Z,26.55
2022-08-17T13:27:33.250Z,27.25
2022-08-17T13:30:11.725Z,27.32
2022-08-17T13:32:48.476Z,27.21
2022-08-17T13:35:49.934Z,27.54
2022-08-17T13:38:45.692Z,27.81
2022-08-17T13:41:36.710Z,27.63
2022-08-17T13:44:50.069Z,27.81
2022-08-17T13:47:20.517Z,28.19
2022-08-17T13:49:49.454Z,28.40
2022-08-17T13:52:43.521Z,28.84
2022-08-17T13:55:22.163Z,28.78
2022-08-17T13:58:04.008Z,29.09
2022-08-17T14:00:36.815Z,28.62
2022-08-17T14:03:05.944Z,28.33
2022-08-17T14:05:33.963Z,28.41
2022-08-17T14:08:06.544Z,28.57
2022-08-17T14:10:36.683Z,28.13
2022-08-17T14:13:06.214Z,27.75
2022-08-17T14:15:54.727Z,27.18
2022-08-17T14:18:50.530Z,27.48
2022-08-17T14:21:10.050Z,27.43
2022-08-17T14:23:37.964Z,26.89
2022-08-17T14:26:05.957Z,26.24
2022-08-17T14:28:33.507Z,26.55
2022-08-17T14:31:03.812Z,26.61
2022-08-17T14:33:31.052Z,26.92
2022-08-17T14:35:58.833Z,27.39
2022-08-17T14:38:26.295Z,26.98
2022-08-17T14:40:54.319Z,26.43
2022-08-17T14:43:22.006Z,27.03
2022-08-17T14:45:51.838Z,27.32
2022-08-17T14:48:19.067Z,26.72
2022-08-17T14:50:46.567Z,26.94
2022-08-17T14:53:16.516Z,27.11
2022-08-17T14:55:45.824Z,27.61
2022-08-17T14:58:14.933Z,28.27
2022-08-17T15:00:43.769Z,28.29
2022-08-17T15:03:11.917Z,28.71
2022-08-17T15:05:41.227Z,28.67
2022-08-17T15:08:08.725Z,29.16
2022-08-17T15:10:37.295Z,29.35
2022-08-17T15:13:11.527Z,29.45
2022-08-17T15:15:39.471Z,29.19
2022-08-17T15:18:08.427Z,29.54
2022-08-17T15:20:35.777Z,29.65
2022-08-17T15:23:03.222Z,29.28
2022-08-17T15:25:33.462Z,29.78
2022-08-17T15:28:02.310Z,29.83
2022-08-17T15:30:30.808Z,29.94
2022-08-17T15:33:00.621Z,30.57
2022-08-17T15:35:33.105Z,30.52
2022-08-17T15:38:10.727Z,30.15
2022-08-17T15:40:44.585Z,30.48
2022-08-17T15:43:21.005Z,30.95
2022-08-17T15:46:12.630Z,31.14
2022-08-17T15:48:43.800Z,31.06
2022-08-17T15:51:16.371Z,31.68
2022-08-17T15:53:50.573Z,31.23
2022-08-17T15:56:18.240Z,31.27
2022-08-17T15:58:48.362Z,31.47
2022-08-17T16:01:51.793Z,31.35
2022-08-17T16:04:30.249Z,31.85
2022-08-17T16:06:57.471Z,31.97
2022-08-17T16:09:33.820Z,32.16
2022-08-17T16:12:13.354Z,32.32
2022-08-17T16:14:40.863Z,32.11
2022-08-17T16:17:38.667Z,32.68
2022-08-17T16:19:57.308Z,32.99
2022-08-17T16:22:38.289Z,32.83
2022-08-17T16:25:18.790Z,32.99
2022-08-17T16:27:50.498Z,33.29
2022-08-17T16:30:18.280Z,33.36
2022-08-17T16:32:51.701Z,33.46
2022-08-17T16:35:22.158Z,33.55
2022-08-17T16:37:49.922Z,33.64
2022-08-17T16:40:18.237Z,33.90
2022-08-17T16:42:48.586Z,33.98
2022-08-17T16:45:27.520Z,34.48
2022-08-17T16:47:59.226Z,34.87
2022-08-17T16:50:27.140Z,34.87
2022-08-17T16:53:16.351Z,34.85
2022-08-17T16:55:49.900Z,35.00
2022-08-17T16:58:17.212Z,35.05
2022-08-17T17:00:48.843Z,35.16
2022-08-17T17:03:25.018Z,35.43
2022-08-17T17:06:35.917Z,35.60
2022-08-17T17:09:13.520Z,35.77
2022-08-17T17:11:48.109Z,36.41
2022-08-17T17:14:32.127Z,36.59
2022-08-17T17:17:13.113Z,37.48
2022-08-17T17:19:51.972Z,37.80
2022-08-17T17:22:36.050Z,38.60
2022-08-17T17:25:29.668Z,39.55
2022-08-17T17:28:05.887Z,39.80
2022-08-17T17:30:47.320Z,40.15
2022-08-17T17:33:19.291Z,40.66
2022-08-17T17:36:08.316Z,41.40
2022-08-17T17:38:52.980Z,41.80
2022-08-17T17:41:42.083Z,42.43
2022-08-17T17:44:19.888Z,42.29
2022-08-17T17:46:57.327Z,43.48
2022-08-17T17:49:33.583Z,43.23
2022-08-17T17:52:45.460Z,43.30
2022-08-17T17:56:00.094Z,44.24
2022-08-17T17:58:44.139Z,44.59
2022-08-17T18:01:42.020Z,45.27
2022-08-17T18:04:21.423Z,46.08
2022-08-17T18:07:37.187Z,46.49
2022-08-17T18:10:30.325Z,46.73
2022-08-17T18:13:39.319Z,47.48
2022-08-17T18:16:12.429Z,47.77
2022-08-17T18:18:46.040Z,47.97
2022-08-17T18:21:19.737Z,48.03
2022-08-17T18:23:51.617Z,48.08
2022-08-17T18:26:55.248Z,48.37
2022-08-17T18:29:27.676Z,49.00
2022-08-17T18:32:34.017Z,49.48
2022-08-17T18:35:10.463Z,50.61
2022-08-17T18:37:45.205Z,50.88
2022-08-17T18:40:19.588Z,51.10
2022-08-17T18:43:24.425Z,51.06
2022-08-17T18:45:56.457Z,51.77
2022-08-17T18:48:58.822Z,52.96
2022-08-17T18:51:43.166Z,53.32
2022-08-17T18:54:23.488Z,53.74
2022-08-17T18:57:00.319Z,53.77
2022-08-17T18:59:27.632Z,54.32
2022-08-17T19:02:10.038Z,55.33
2022-08-17T19:04:59.778Z,55.96
2022-08-17T19:07:47.482Z,56.63
2022-08-17T19:10:45.954Z,57.40
2022-08-17T19:13:38.936Z,58.40
2022-08-17T19:16:49.330Z,59.25
2022-08-17T19:19:26.988Z,60.04
2022-08-17T19:22:28.574Z,60.19
2022-08-17T19:25:11.043Z,60.91
2022-08-17T19:28:21.504Z,61.52
2022-08-17T19:30:57.477Z,62.37
2022-08-17T19:33:26.440Z,62.70
2022-08-17T19:36:06.391Z,63.80
2022-08-17T19:39:11.771Z,64.83
2022-08-17T19:41:52.496Z,65.03
2022-08-17T19:44:49.645Z,65.29
2022-08-17T19:47:54.924Z,65.83
2022-08-17T19:50:38.565Z,66.44
2022-08-17T19:54:05.747Z,66.82
2022-08-17T19:57:07.504Z,67.36
2022-08-17T20:00:01.939Z,67.14
2022-08-17T20:02:41.983Z,68.76
2022-08-17T20:05:21.089Z,68.01
2022-08-17T20:08:22.189Z,69.23
2022-08-17T20:11:01.266Z,69.59
2022-08-17T20:13:39.599Z,68.76
2022-08-17T20:16:09.014Z,68.51
2022-08-17T20:19:04.969Z,68.40
2022-08-17T20:21:52.179Z,69.87
2022-08-17T20:24:38.026Z,69.39
2022-08-17T20:27:28.018Z,69.17
2022-08-17T20:30:24.439Z,69.16
2022-08-17T20:32:58.786Z,69.88
2022-08-17T20:35:33.852Z,69.83
2022-08-17T20:38:36.320Z,71.02
2022-08-17T20:41:04.039Z,70.53
2022-08-17T20:43:37.122Z,71.34
2022-08-17T20:46:31.668Z,71.13
2022-08-17T20:49:11.170Z,71.52
2022-08-17T20:52:07.940Z,72.24
2022-08-17T20:54:49.902Z,72.89
2022-08-17T20:57:32.635Z,73.34
2022-08-17T21:00:15.664Z,72.96
2022-08-17T21:02:50.137Z,73.86
2022-08-17T21:05:59.860Z,74.00
2022-08-17T21:08:34.615Z,74.04
2022-08-17T21:11:57.247Z,74.21
2022-08-17T21:14:36.599Z,74.47
2022-08-17T21:17:22.688Z,74.32
2022-08-17T21:20:34.360Z,74.59
2022-08-17T21:23:40.894Z,74.11
2022-08-17T21:26:50.424Z,75.06
2022-08-17T21:29:30.877Z,74.67
2022-08-17T21:32:00.635Z,74.81
2022-08-17T21:34:34.803Z,74.76
2022-08-17T21:37:20.432Z,75.13
2022-08-17T21:39:56.001Z,75.30
2022-08-17T21:42:30.246Z,75.72
2022-08-17T21:45:12.345Z,76.32
2022-08-17T21:47:43.672Z,76.33
2022-08-17T21:50:23.941Z,75.60
2022-08-17T21:52:54.585Z,75.69
2022-08-17T21:55:32.254Z,75.00
2022-08-17T21:58:13.955Z,75.55
2022-08-17T22:00:46.179Z,76.30
2022-08-17T22:03:26.232Z,76.92
2022-08-17T22:05:53.722Z,76.75
2022-08-17T22:08:25.751Z,77.47
2022-08-17T22:11:01.976Z,77.82
2022-08-17T22:13:30.030Z,77.43
2022-08-17T22:16:29.013Z,78.70
2022-08-17T22:18:59.309Z,78.04
2022-08-17T22:21:27.160Z,78.65
2022-08-17T22:24:16.436Z,78.65
2022-08-17T22:27:11.720Z,78.63
2022-08-17T22:29:44.574Z,77.73
2022-08-17T22:32:37.520Z,78.20
2022-08-17T22:35:29.319Z,78.05
2022-08-17T22:38:20.567Z,77.50
2022-08-17T22:40:56.184Z,77.87
2022-08-17T22:43:28.758Z,77.75
2022-08-17T22:46:00.142Z,77.59
2022-08-17T22:48:31.291Z,77.98
2022-08-17T22:51:17.653Z,78.79
2022-08-17T22:54:17.106Z,77.98
2022-08-17T22:57:18.873Z,77.87
2022-08-17T22:59:52.425Z,77.80
2022-08-17T23:02:27.897Z,77.55
2022-08-17T23:05:16.915Z,78.02
2022-08-17T23:07:47.456Z,77.37
2022-08-17T23:10:15.694Z,77.37
2022-08-17T23:12:43.028Z,78.38
2022-08-17T23:15:20.053Z,78.24
2022-08-17T23:17:47.858Z,77.93
2022-08-17T23:20:17.713Z,77.62
2022-08-17T23:22:52.325Z,77.45
2022-08-17T23:25:31.443Z,77.49
2022-08-17T23:28:01.823Z,77.68
2022-08-17T23:30:32.815Z,77.70
2022-08-17T23:33:07.527Z,77.28
2022-08-17T23:35:39.736Z,77.30
2022-08-17T23:38:10.793Z,77.16
2022-08-17T23:40:40.060Z,77.39
2022-08-17T23:43:24.163Z,77.42
2022-08-17T23:45:59.879Z,77.51
2022-08-17T23:48:35.173Z,77.59
2022-08-17T23:51:19.161Z,77.90
2022-08-17T23:53:53.019Z,78.08
2022-08-17T23:56:26.705Z,78.21
2022-08-17T23:58:55.885Z,78.89
